Alsey, Illinois
Current Conditions -  °F | °C
As of 9:15 AM on Friday 19 Dec 2014 (Local Time) from KIJX Reporting Station
Overcast Overcast  
Wind Chill: -3°   Ceiling: 4400
Heat Index:   Visibility: 7mi
Dew Point: -3°   Wind: 6mph
Humidity: 79%   Direction: 80°E
Pressure: 30.33"   Gusts: NA
Location:  39.56°N, 90.43°W
Report Text: KIJX 191515Z AUTO 08005KT 7SM OVC044 00/M03 A3033 RMK AO2 T00001032
Loading
Personal Weather Stations






























Interactive Weather Map New forecast layout! Learn more

10-Day Weather Forecast

Advertisements
Track Severe Weather on mobile